sensor_id;sensor_type;location;lat;lon;timestamp;P1;durP1;ratioP1;P2;durP2;ratioP2
19883;SDS011;10104;50.732;10.174;2022-10-23T00:03:52;6.77;;;2.80;;
19883;SDS011;10104;50.732;10.174;2022-10-23T00:06:15;5.57;;;2.20;;
19883;SDS011;10104;50.732;10.174;2022-10-23T00:08:37;10.40;;;2.73;;
19883;SDS011;10104;50.732;10.174;2022-10-23T00:10:59;4.27;;;2.30;;
19883;SDS011;10104;50.732;10.174;2022-10-23T00:13:21;6.57;;;2.60;;
19883;SDS011;10104;50.732;10.174;2022-10-23T00:15:42;4.00;;;2.17;;
19883;SDS011;10104;50.732;10.174;2022-10-23T00:18:04;4.00;;;1.90;;
19883;SDS011;10104;50.732;10.174;2022-10-23T00:20:25;2.53;;;1.43;;
19883;SDS011;10104;50.732;10.174;2022-10-23T00:22:47;5.53;;;1.83;;
19883;SDS011;10104;50.732;10.174;2022-10-23T00:25:09;4.23;;;1.80;;
19883;SDS011;10104;50.732;10.174;2022-10-23T00:27:31;5.63;;;1.80;;
19883;SDS011;10104;50.732;10.174;2022-10-23T00:29:53;5.83;;;1.73;;
19883;SDS011;10104;50.732;10.174;2022-10-23T00:32:14;5.13;;;1.90;;
19883;SDS011;10104;50.732;10.174;2022-10-23T00:34:36;7.63;;;1.97;;
19883;SDS011;10104;50.732;10.174;2022-10-23T00:36:57;2.83;;;1.70;;
19883;SDS011;10104;50.732;10.174;2022-10-23T00:39:19;5.00;;;2.10;;
19883;SDS011;10104;50.732;10.174;2022-10-23T00:41:40;5.13;;;1.90;;
19883;SDS011;10104;50.732;10.174;2022-10-23T00:44:04;5.00;;;2.10;;
19883;SDS011;10104;50.732;10.174;2022-10-23T00:46:38;4.40;;;2.10;;
19883;SDS011;10104;50.732;10.174;2022-10-23T00:49:00;2.50;;;1.60;;
19883;SDS011;10104;50.732;10.174;2022-10-23T00:51:22;10.37;;;1.70;;
19883;SDS011;10104;50.732;10.174;2022-10-23T00:53:48;7.57;;;1.50;;
19883;SDS011;10104;50.732;10.174;2022-10-23T00:56:32;4.50;;;2.43;;
19883;SDS011;10104;50.732;10.174;2022-10-23T00:58:58;4.03;;;1.93;;
19883;SDS011;10104;50.732;10.174;2022-10-23T01:01:20;3.83;;;2.10;;
19883;SDS011;10104;50.732;10.174;2022-10-23T01:03:43;4.47;;;1.63;;
19883;SDS011;10104;50.732;10.174;2022-10-23T01:06:49;5.57;;;2.30;;
19883;SDS011;10104;50.732;10.174;2022-10-23T01:17:18;5.33;;;1.83;;
19883;SDS011;10104;50.732;10.174;2022-10-23T01:28:19;6.93;;;1.40;;
19883;SDS011;10104;50.732;10.174;2022-10-23T01:30:49;4.57;;;1.40;;
19883;SDS011;10104;50.732;10.174;2022-10-23T01:33:16;1.30;;;1.20;;
19883;SDS011;10104;50.732;10.174;2022-10-23T01:35:46;3.13;;;1.40;;
19883;SDS011;10104;50.732;10.174;2022-10-23T01:38:13;1.70;;;1.10;;
19883;SDS011;10104;50.732;10.174;2022-10-23T01:43:16;1.67;;;1.20;;
19883;SDS011;10104;50.732;10.174;2022-10-23T01:45:44;9.00;;;2.03;;
19883;SDS011;10104;50.732;10.174;2022-10-23T01:48:12;4.17;;;1.70;;
19883;SDS011;10104;50.732;10.174;2022-10-23T01:50:37;3.90;;;2.03;;
19883;SDS011;10104;50.732;10.174;2022-10-23T01:53:02;3.83;;;2.20;;
19883;SDS011;10104;50.732;10.174;2022-10-23T01:55:25;5.43;;;2.30;;
19883;SDS011;10104;50.732;10.174;2022-10-23T01:57:47;5.33;;;2.63;;
19883;SDS011;10104;50.732;10.174;2022-10-23T02:00:11;6.27;;;2.70;;
19883;SDS011;10104;50.732;10.174;2022-10-23T02:02:35;4.20;;;1.67;;
19883;SDS011;10104;50.732;10.174;2022-10-23T02:05:01;2.80;;;1.53;;
19883;SDS011;10104;50.732;10.174;2022-10-23T02:07:27;5.93;;;1.43;;
19883;SDS011;10104;50.732;10.174;2022-10-23T02:09:50;5.27;;;1.40;;
19883;SDS011;10104;50.732;10.174;2022-10-23T02:12:13;3.87;;;1.70;;
19883;SDS011;10104;50.732;10.174;2022-10-23T02:14:47;2.50;;;1.50;;
19883;SDS011;10104;50.732;10.174;2022-10-23T02:17:20;5.77;;;1.73;;
19883;SDS011;10104;50.732;10.174;2022-10-23T02:22:35;1.70;;;1.30;;
19883;SDS011;10104;50.732;10.174;2022-10-23T02:25:14;3.30;;;1.27;;
19883;SDS011;10104;50.732;10.174;2022-10-23T02:27:45;4.50;;;1.40;;
19883;SDS011;10104;50.732;10.174;2022-10-23T02:30:10;7.90;;;1.70;;
19883;SDS011;10104;50.732;10.174;2022-10-23T02:32:34;4.60;;;1.50;;
19883;SDS011;10104;50.732;10.174;2022-10-23T02:34:57;6.80;;;2.43;;
19883;SDS011;10104;50.732;10.174;2022-10-23T02:37:19;7.27;;;2.70;;
19883;SDS011;10104;50.732;10.174;2022-10-23T02:39:42;3.13;;;1.67;;
19883;SDS011;10104;50.732;10.174;2022-10-23T02:54:47;3.53;;;2.23;;
19883;SDS011;10104;50.732;10.174;2022-10-23T02:59:44;6.57;;;2.80;;
19883;SDS011;10104;50.732;10.174;2022-10-23T03:02:22;6.00;;;1.90;;
19883;SDS011;10104;50.732;10.174;2022-10-23T03:04:46;6.10;;;2.70;;
19883;SDS011;10104;50.732;10.174;2022-10-23T03:07:11;4.27;;;2.83;;
19883;SDS011;10104;50.732;10.174;2022-10-23T03:09:33;7.33;;;2.87;;
19883;SDS011;10104;50.732;10.174;2022-10-23T03:11:56;8.90;;;3.43;;
19883;SDS011;10104;50.732;10.174;2022-10-23T03:14:18;7.93;;;2.80;;
19883;SDS011;10104;50.732;10.174;2022-10-23T03:16:39;6.50;;;2.50;;
19883;SDS011;10104;50.732;10.174;2022-10-23T03:19:01;5.43;;;3.10;;
19883;SDS011;10104;50.732;10.174;2022-10-23T03:21:23;7.17;;;3.00;;
19883;SDS011;10104;50.732;10.174;2022-10-23T03:23:44;7.17;;;3.13;;
19883;SDS011;10104;50.732;10.174;2022-10-23T03:26:06;2.77;;;2.20;;
19883;SDS011;10104;50.732;10.174;2022-10-23T03:28:27;5.00;;;2.47;;
19883;SDS011;10104;50.732;10.174;2022-10-23T03:30:49;6.87;;;2.70;;
19883;SDS011;10104;50.732;10.174;2022-10-23T03:33:10;3.70;;;2.90;;
19883;SDS011;10104;50.732;10.174;2022-10-23T03:35:32;6.63;;;3.20;;
19883;SDS011;10104;50.732;10.174;2022-10-23T03:37:53;4.17;;;3.23;;
19883;SDS011;10104;50.732;10.174;2022-10-23T03:40:15;4.03;;;2.73;;
19883;SDS011;10104;50.732;10.174;2022-10-23T03:42:36;7.73;;;3.03;;
19883;SDS011;10104;50.732;10.174;2022-10-23T03:44:58;8.57;;;3.00;;
19883;SDS011;10104;50.732;10.174;2022-10-23T03:47:19;4.43;;;2.30;;
19883;SDS011;10104;50.732;10.174;2022-10-23T03:49:41;6.73;;;2.77;;
19883;SDS011;10104;50.732;10.174;2022-10-23T03:52:03;6.67;;;3.10;;
19883;SDS011;10104;50.732;10.174;2022-10-23T03:54:25;5.77;;;2.60;;
19883;SDS011;10104;50.732;10.174;2022-10-23T03:56:47;4.13;;;2.30;;
19883;SDS011;10104;50.732;10.174;2022-10-23T03:59:15;4.30;;;2.80;;
19883;SDS011;10104;50.732;10.174;2022-10-23T04:01:37;3.37;;;2.90;;
19883;SDS011;10104;50.732;10.174;2022-10-23T04:03:58;6.30;;;3.13;;
19883;SDS011;10104;50.732;10.174;2022-10-23T04:06:20;6.20;;;4.03;;
19883;SDS011;10104;50.732;10.174;2022-10-23T04:08:42;4.60;;;3.43;;
19883;SDS011;10104;50.732;10.174;2022-10-23T04:11:04;5.33;;;4.33;;
19883;SDS011;10104;50.732;10.174;2022-10-23T04:13:26;9.77;;;4.73;;
19883;SDS011;10104;50.732;10.174;2022-10-23T04:15:48;8.10;;;6.67;;
19883;SDS011;10104;50.732;10.174;2022-10-23T04:18:11;9.27;;;7.37;;
19883;SDS011;10104;50.732;10.174;2022-10-23T04:20:32;9.47;;;6.83;;
19883;SDS011;10104;50.732;10.174;2022-10-23T04:22:53;8.30;;;6.30;;
19883;SDS011;10104;50.732;10.174;2022-10-23T04:25:15;7.47;;;4.90;;
19883;SDS011;10104;50.732;10.174;2022-10-23T04:27:37;10.97;;;5.67;;
19883;SDS011;10104;50.732;10.174;2022-10-23T04:29:58;7.70;;;4.70;;
19883;SDS011;10104;50.732;10.174;2022-10-23T04:32:20;7.20;;;6.17;;
19883;SDS011;10104;50.732;10.174;2022-10-23T04:34:42;10.43;;;7.20;;
19883;SDS011;10104;50.732;10.174;2022-10-23T04:37:03;13.33;;;7.70;;
19883;SDS011;10104;50.732;10.174;2022-10-23T04:39:25;12.57;;;8.27;;
19883;SDS011;10104;50.732;10.174;2022-10-23T04:41:46;11.30;;;8.53;;
19883;SDS011;10104;50.732;10.174;2022-10-23T04:44:08;9.37;;;8.17;;
19883;SDS011;10104;50.732;10.174;2022-10-23T04:46:29;15.17;;;8.17;;
19883;SDS011;10104;50.732;10.174;2022-10-23T04:48:51;14.27;;;8.67;;
19883;SDS011;10104;50.732;10.174;2022-10-23T04:51:12;13.40;;;9.60;;
19883;SDS011;10104;50.732;10.174;2022-10-23T04:53:34;13.93;;;9.87;;
19883;SDS011;10104;50.732;10.174;2022-10-23T04:55:56;13.67;;;10.13;;
19883;SDS011;10104;50.732;10.174;2022-10-23T04:58:19;13.80;;;9.23;;
19883;SDS011;10104;50.732;10.174;2022-10-23T05:00:41;15.10;;;9.33;;
19883;SDS011;10104;50.732;10.174;2022-10-23T05:03:02;14.03;;;9.53;;
19883;SDS011;10104;50.732;10.174;2022-10-23T05:05:24;16.20;;;9.50;;
19883;SDS011;10104;50.732;10.174;2022-10-23T05:07:45;14.73;;;9.30;;
19883;SDS011;10104;50.732;10.174;2022-10-23T05:10:07;11.80;;;9.53;;
19883;SDS011;10104;50.732;10.174;2022-10-23T05:12:29;14.13;;;8.83;;
19883;SDS011;10104;50.732;10.174;2022-10-23T05:14:50;13.00;;;8.77;;
19883;SDS011;10104;50.732;10.174;2022-10-23T05:17:14;14.67;;;8.60;;
19883;SDS011;10104;50.732;10.174;2022-10-23T05:19:40;11.87;;;7.80;;
19883;SDS011;10104;50.732;10.174;2022-10-23T05:22:06;14.00;;;7.80;;
19883;SDS011;10104;50.732;10.174;2022-10-23T05:24:29;14.30;;;7.70;;
19883;SDS011;10104;50.732;10.174;2022-10-23T05:26:51;11.87;;;7.27;;
19883;SDS011;10104;50.732;10.174;2022-10-23T05:29:13;12.07;;;7.17;;
19883;SDS011;10104;50.732;10.174;2022-10-23T05:31:34;7.97;;;6.40;;
19883;SDS011;10104;50.732;10.174;2022-10-23T05:33:56;10.53;;;7.03;;
19883;SDS011;10104;50.732;10.174;2022-10-23T05:36:18;10.70;;;6.67;;
19883;SDS011;10104;50.732;10.174;2022-10-23T05:38:39;10.37;;;7.23;;
19883;SDS011;10104;50.732;10.174;2022-10-23T05:41:01;11.57;;;7.40;;
19883;SDS011;10104;50.732;10.174;2022-10-23T05:43:23;12.97;;;8.20;;
19883;SDS011;10104;50.732;10.174;2022-10-23T05:45:47;12.07;;;8.47;;
19883;SDS011;10104;50.732;10.174;2022-10-23T05:48:09;13.87;;;7.97;;
19883;SDS011;10104;50.732;10.174;2022-10-23T05:50:42;10.10;;;7.40;;
19883;SDS011;10104;50.732;10.174;2022-10-23T05:53:03;12.07;;;7.73;;
19883;SDS011;10104;50.732;10.174;2022-10-23T05:55:25;14.50;;;7.37;;
19883;SDS011;10104;50.732;10.174;2022-10-23T05:57:46;9.90;;;6.60;;
19883;SDS011;10104;50.732;10.174;2022-10-23T06:00:08;14.07;;;7.37;;
19883;SDS011;10104;50.732;10.174;2022-10-23T06:02:31;10.70;;;7.40;;
19883;SDS011;10104;50.732;10.174;2022-10-23T06:04:53;9.50;;;6.70;;
19883;SDS011;10104;50.732;10.174;2022-10-23T06:07:14;12.00;;;7.07;;
19883;SDS011;10104;50.732;10.174;2022-10-23T06:09:36;9.10;;;7.50;;
19883;SDS011;10104;50.732;10.174;2022-10-23T06:11:57;10.73;;;6.67;;
19883;SDS011;10104;50.732;10.174;2022-10-23T06:14:19;10.57;;;6.60;;
19883;SDS011;10104;50.732;10.174;2022-10-23T06:16:40;10.97;;;6.93;;
19883;SDS011;10104;50.732;10.174;2022-10-23T06:19:02;9.07;;;6.90;;
19883;SDS011;10104;50.732;10.174;2022-10-23T06:21:24;11.00;;;7.30;;
19883;SDS011;10104;50.732;10.174;2022-10-23T06:23:46;8.47;;;6.47;;
19883;SDS011;10104;50.732;10.174;2022-10-23T06:26:08;8.17;;;6.40;;
19883;SDS011;10104;50.732;10.174;2022-10-23T06:28:32;7.70;;;6.60;;
19883;SDS011;10104;50.732;10.174;2022-10-23T06:30:54;12.70;;;6.23;;
19883;SDS011;10104;50.732;10.174;2022-10-23T06:33:16;10.20;;;7.27;;
19883;SDS011;10104;50.732;10.174;2022-10-23T06:35:37;14.43;;;8.87;;
19883;SDS011;10104;50.732;10.174;2022-10-23T06:37:59;13.10;;;8.53;;
19883;SDS011;10104;50.732;10.174;2022-10-23T06:40:20;9.97;;;8.50;;
19883;SDS011;10104;50.732;10.174;2022-10-23T06:42:42;11.93;;;8.37;;
19883;SDS011;10104;50.732;10.174;2022-10-23T06:45:04;11.97;;;8.60;;
19883;SDS011;10104;50.732;10.174;2022-10-23T06:47:27;11.73;;;9.77;;
19883;SDS011;10104;50.732;10.174;2022-10-23T06:49:48;9.97;;;8.10;;
19883;SDS011;10104;50.732;10.174;2022-10-23T06:52:10;11.13;;;8.40;;
19883;SDS011;10104;50.732;10.174;2022-10-23T06:54:51;13.07;;;10.60;;
19883;SDS011;10104;50.732;10.174;2022-10-23T06:57:13;10.70;;;8.87;;
19883;SDS011;10104;50.732;10.174;2022-10-23T06:59:34;11.97;;;9.37;;
19883;SDS011;10104;50.732;10.174;2022-10-23T07:01:56;10.73;;;8.10;;
19883;SDS011;10104;50.732;10.174;2022-10-23T07:04:17;10.77;;;7.67;;
19883;SDS011;10104;50.732;10.174;2022-10-23T07:06:39;9.07;;;7.83;;
19883;SDS011;10104;50.732;10.174;2022-10-23T07:09:02;13.77;;;8.00;;
19883;SDS011;10104;50.732;10.174;2022-10-23T07:11:23;8.77;;;7.33;;
19883;SDS011;10104;50.732;10.174;2022-10-23T07:13:45;14.90;;;7.67;;
19883;SDS011;10104;50.732;10.174;2022-10-23T07:16:08;9.03;;;7.90;;
19883;SDS011;10104;50.732;10.174;2022-10-23T07:18:34;12.60;;;9.27;;
19883;SDS011;10104;50.732;10.174;2022-10-23T07:20:56;11.70;;;8.87;;
19883;SDS011;10104;50.732;10.174;2022-10-23T07:23:18;12.47;;;10.90;;
19883;SDS011;10104;50.732;10.174;2022-10-23T07:25:40;11.77;;;9.63;;
19883;SDS011;10104;50.732;10.174;2022-10-23T07:28:03;9.73;;;8.60;;
19883;SDS011;10104;50.732;10.174;2022-10-23T07:30:24;12.33;;;9.97;;
19883;SDS011;10104;50.732;10.174;2022-10-23T07:32:46;11.50;;;9.77;;
19883;SDS011;10104;50.732;10.174;2022-10-23T07:35:08;11.80;;;8.83;;
19883;SDS011;10104;50.732;10.174;2022-10-23T07:37:30;10.77;;;7.00;;
19883;SDS011;10104;50.732;10.174;2022-10-23T07:39:52;9.13;;;6.87;;
19883;SDS011;10104;50.732;10.174;2022-10-23T07:42:13;8.73;;;7.13;;
19883;SDS011;10104;50.732;10.174;2022-10-23T07:44:35;8.97;;;6.53;;
19883;SDS011;10104;50.732;10.174;2022-10-23T07:46:56;6.77;;;6.07;;
19883;SDS011;10104;50.732;10.174;2022-10-23T07:49:18;8.37;;;5.97;;
19883;SDS011;10104;50.732;10.174;2022-10-23T07:51:39;7.83;;;6.13;;
19883;SDS011;10104;50.732;10.174;2022-10-23T07:54:01;11.17;;;6.07;;
19883;SDS011;10104;50.732;10.174;2022-10-23T07:56:24;9.63;;;6.03;;
19883;SDS011;10104;50.732;10.174;2022-10-23T07:58:49;7.40;;;6.10;;
19883;SDS011;10104;50.732;10.174;2022-10-23T08:01:15;13.00;;;6.67;;
19883;SDS011;10104;50.732;10.174;2022-10-23T08:03:39;7.23;;;5.53;;
19883;SDS011;10104;50.732;10.174;2022-10-23T08:06:00;5.63;;;5.00;;
19883;SDS011;10104;50.732;10.174;2022-10-23T08:08:22;7.25;;;5.20;;
19883;SDS011;10104;50.732;10.174;2022-10-23T08:10:45;6.10;;;4.80;;
19883;SDS011;10104;50.732;10.174;2022-10-23T08:13:09;7.35;;;4.88;;
19883;SDS011;10104;50.732;10.174;2022-10-23T08:15:33;5.68;;;4.60;;
19883;SDS011;10104;50.732;10.174;2022-10-23T08:17:54;5.30;;;4.80;;
19883;SDS011;10104;50.732;10.174;2022-10-23T08:20:16;8.02;;;4.50;;
19883;SDS011;10104;50.732;10.174;2022-10-23T08:22:38;7.15;;;4.80;;
19883;SDS011;10104;50.732;10.174;2022-10-23T08:25:00;5.05;;;4.53;;
19883;SDS011;10104;50.732;10.174;2022-10-23T08:27:21;5.70;;;4.63;;
19883;SDS011;10104;50.732;10.174;2022-10-23T08:29:43;12.02;;;8.15;;
19883;SDS011;10104;50.732;10.174;2022-10-23T08:32:04;7.68;;;5.60;;
19883;SDS011;10104;50.732;10.174;2022-10-23T08:34:26;9.07;;;6.75;;
19883;SDS011;10104;50.732;10.174;2022-10-23T08:36:48;9.88;;;7.72;;
19883;SDS011;10104;50.732;10.174;2022-10-23T08:39:09;9.30;;;6.15;;
19883;SDS011;10104;50.732;10.174;2022-10-23T08:41:35;9.07;;;5.45;;
19883;SDS011;10104;50.732;10.174;2022-10-23T08:44:20;7.68;;;5.43;;
19883;SDS011;10104;50.732;10.174;2022-10-23T08:46:47;7.05;;;5.55;;
19883;SDS011;10104;50.732;10.174;2022-10-23T08:49:27;10.48;;;5.28;;
19883;SDS011;10104;50.732;10.174;2022-10-23T08:51:56;9.35;;;5.82;;
19883;SDS011;10104;50.732;10.174;2022-10-23T08:54:27;8.52;;;5.30;;
19883;SDS011;10104;50.732;10.174;2022-10-23T08:57:00;20.70;;;12.77;;
19883;SDS011;10104;50.732;10.174;2022-10-23T09:02:04;10.32;;;7.50;;
19883;SDS011;10104;50.732;10.174;2022-10-23T09:04:44;9.05;;;7.55;;
19883;SDS011;10104;50.732;10.174;2022-10-23T09:07:20;7.38;;;5.85;;
19883;SDS011;10104;50.732;10.174;2022-10-23T09:10:04;7.75;;;4.22;;
19883;SDS011;10104;50.732;10.174;2022-10-23T09:12:46;7.95;;;3.97;;
19883;SDS011;10104;50.732;10.174;2022-10-23T09:17:57;3.83;;;2.22;;
19883;SDS011;10104;50.732;10.174;2022-10-23T09:20:31;6.88;;;2.80;;
19883;SDS011;10104;50.732;10.174;2022-10-23T09:25:25;3.10;;;2.45;;
19883;SDS011;10104;50.732;10.174;2022-10-23T09:27:50;5.70;;;2.63;;
19883;SDS011;10104;50.732;10.174;2022-10-23T09:30:24;6.22;;;2.83;;
19883;SDS011;10104;50.732;10.174;2022-10-23T09:32:59;9.50;;;3.40;;
19883;SDS011;10104;50.732;10.174;2022-10-23T09:35:34;7.18;;;3.20;;
19883;SDS011;10104;50.732;10.174;2022-10-23T09:37:55;6.97;;;2.50;;
19883;SDS011;10104;50.732;10.174;2022-10-23T09:40:28;6.85;;;2.50;;
19883;SDS011;10104;50.732;10.174;2022-10-23T09:43:01;6.25;;;2.97;;
19883;SDS011;10104;50.732;10.174;2022-10-23T09:45:29;2.80;;;2.60;;
19883;SDS011;10104;50.732;10.174;2022-10-23T09:48:13;4.90;;;2.95;;
19883;SDS011;10104;50.732;10.174;2022-10-23T09:50:36;5.30;;;3.00;;
19883;SDS011;10104;50.732;10.174;2022-10-23T09:53:02;4.13;;;2.88;;
19883;SDS011;10104;50.732;10.174;2022-10-23T09:55:24;3.63;;;2.95;;
19883;SDS011;10104;50.732;10.174;2022-10-23T09:57:47;4.50;;;3.03;;
19883;SDS011;10104;50.732;10.174;2022-10-23T10:02:35;6.32;;;3.42;;
19883;SDS011;10104;50.732;10.174;2022-10-23T10:04:57;3.83;;;2.58;;
19883;SDS011;10104;50.732;10.174;2022-10-23T10:07:20;4.25;;;3.15;;
19883;SDS011;10104;50.732;10.174;2022-10-23T10:09:43;3.60;;;3.05;;
19883;SDS011;10104;50.732;10.174;2022-10-23T10:15:09;3.72;;;2.70;;
19883;SDS011;10104;50.732;10.174;2022-10-23T10:17:54;4.38;;;2.38;;
19883;SDS011;10104;50.732;10.174;2022-10-23T10:20:28;3.13;;;2.55;;
19883;SDS011;10104;50.732;10.174;2022-10-23T10:28:44;3.10;;;2.60;;
19883;SDS011;10104;50.732;10.174;2022-10-23T10:31:13;5.47;;;2.42;;
19883;SDS011;10104;50.732;10.174;2022-10-23T10:39:17;2.40;;;1.95;;
19883;SDS011;10104;50.732;10.174;2022-10-23T10:44:39;2.97;;;2.10;;
19883;SDS011;10104;50.732;10.174;2022-10-23T10:47:19;3.40;;;2.42;;
19883;SDS011;10104;50.732;10.174;2022-10-23T11:00:44;3.55;;;2.70;;
19883;SDS011;10104;50.732;10.174;2022-10-23T11:03:27;3.30;;;3.00;;
19883;SDS011;10104;50.732;10.174;2022-10-23T11:08:36;4.78;;;4.07;;
19883;SDS011;10104;50.732;10.174;2022-10-23T11:11:20;5.07;;;3.25;;
19883;SDS011;10104;50.732;10.174;2022-10-23T11:13:48;3.47;;;2.88;;
19883;SDS011;10104;50.732;10.174;2022-10-23T11:16:17;3.75;;;2.53;;
19883;SDS011;10104;50.732;10.174;2022-10-23T11:18:45;6.00;;;3.08;;
19883;SDS011;10104;50.732;10.174;2022-10-23T11:22:08;3.50;;;3.20;;
19883;SDS011;10104;50.732;10.174;2022-10-23T11:33:02;3.42;;;2.88;;
19883;SDS011;10104;50.732;10.174;2022-10-23T11:38:23;3.35;;;3.05;;
19883;SDS011;10104;50.732;10.174;2022-10-23T11:40:49;4.18;;;2.80;;
19883;SDS011;10104;50.732;10.174;2022-10-23T11:43:24;5.43;;;2.33;;
19883;SDS011;10104;50.732;10.174;2022-10-23T11:45:46;2.90;;;2.60;;
19883;SDS011;10104;50.732;10.174;2022-10-23T11:50:57;3.13;;;2.08;;
19883;SDS011;10104;50.732;10.174;2022-10-23T11:53:36;5.10;;;2.55;;
19883;SDS011;10104;50.732;10.174;2022-10-23T12:04:03;2.58;;;2.08;;
19883;SDS011;10104;50.732;10.174;2022-10-23T12:06:39;4.38;;;1.90;;
19883;SDS011;10104;50.732;10.174;2022-10-23T12:09:07;2.35;;;1.73;;
19883;SDS011;10104;50.732;10.174;2022-10-23T12:11:49;2.42;;;1.77;;
19883;SDS011;10104;50.732;10.174;2022-10-23T12:14:48;2.95;;;2.30;;
19883;SDS011;10104;50.732;10.174;2022-10-23T12:19:46;19.23;;;3.55;;
19883;SDS011;10104;50.732;10.174;2022-10-23T12:22:13;10.65;;;2.65;;
19883;SDS011;10104;50.732;10.174;2022-10-23T12:24:38;3.42;;;2.35;;
19883;SDS011;10104;50.732;10.174;2022-10-23T12:27:23;3.38;;;1.77;;
19883;SDS011;10104;50.732;10.174;2022-10-23T12:38:18;2.42;;;1.75;;
19883;SDS011;10104;50.732;10.174;2022-10-23T12:40:55;2.55;;;2.00;;
19883;SDS011;10104;50.732;10.174;2022-10-23T12:43:26;4.75;;;2.03;;
19883;SDS011;10104;50.732;10.174;2022-10-23T12:45:50;2.00;;;1.80;;
19883;SDS011;10104;50.732;10.174;2022-10-23T12:48:19;4.07;;;1.88;;
19883;SDS011;10104;50.732;10.174;2022-10-23T12:50:43;3.13;;;2.00;;
19883;SDS011;10104;50.732;10.174;2022-10-23T12:53:13;2.95;;;1.60;;
19883;SDS011;10104;50.732;10.174;2022-10-23T12:55:55;4.60;;;1.77;;
19883;SDS011;10104;50.732;10.174;2022-10-23T12:58:24;5.95;;;2.08;;
19883;SDS011;10104;50.732;10.174;2022-10-23T13:00:54;1.95;;;1.77;;
19883;SDS011;10104;50.732;10.174;2022-10-23T13:03:18;3.75;;;1.75;;
19883;SDS011;10104;50.732;10.174;2022-10-23T13:05:40;3.80;;;2.03;;
19883;SDS011;10104;50.732;10.174;2022-10-23T13:08:02;4.65;;;1.83;;
19883;SDS011;10104;50.732;10.174;2022-10-23T13:10:25;5.88;;;1.95;;
19883;SDS011;10104;50.732;10.174;2022-10-23T13:13:03;4.03;;;2.00;;
19883;SDS011;10104;50.732;10.174;2022-10-23T13:15:35;6.15;;;5.00;;
19883;SDS011;10104;50.732;10.174;2022-10-23T13:18:04;7.15;;;6.45;;
19883;SDS011;10104;50.732;10.174;2022-10-23T13:20:31;8.63;;;3.95;;
19883;SDS011;10104;50.732;10.174;2022-10-23T13:22:57;5.30;;;2.25;;
19883;SDS011;10104;50.732;10.174;2022-10-23T13:25:22;3.08;;;2.13;;
19883;SDS011;10104;50.732;10.174;2022-10-23T13:27:46;4.00;;;1.80;;
19883;SDS011;10104;50.732;10.174;2022-10-23T13:30:26;4.78;;;2.15;;
19883;SDS011;10104;50.732;10.174;2022-10-23T13:32:53;3.65;;;1.90;;
19883;SDS011;10104;50.732;10.174;2022-10-23T13:35:21;4.97;;;1.90;;
19883;SDS011;10104;50.732;10.174;2022-10-23T13:37:43;3.15;;;1.90;;
19883;SDS011;10104;50.732;10.174;2022-10-23T13:40:23;3.28;;;2.28;;
19883;SDS011;10104;50.732;10.174;2022-10-23T13:42:49;3.63;;;2.30;;
19883;SDS011;10104;50.732;10.174;2022-10-23T13:45:13;3.28;;;1.98;;
19883;SDS011;10104;50.732;10.174;2022-10-23T13:47:39;3.10;;;1.98;;
19883;SDS011;10104;50.732;10.174;2022-10-23T13:50:01;2.58;;;1.95;;
19883;SDS011;10104;50.732;10.174;2022-10-23T13:52:22;3.75;;;2.10;;
19883;SDS011;10104;50.732;10.174;2022-10-23T13:54:44;4.07;;;2.20;;
19883;SDS011;10104;50.732;10.174;2022-10-23T13:57:08;4.50;;;2.30;;
19883;SDS011;10104;50.732;10.174;2022-10-23T13:59:33;3.00;;;2.10;;
19883;SDS011;10104;50.732;10.174;2022-10-23T14:01:55;4.32;;;2.10;;
19883;SDS011;10104;50.732;10.174;2022-10-23T14:04:17;3.05;;;2.20;;
19883;SDS011;10104;50.732;10.174;2022-10-23T14:06:39;2.17;;;1.73;;
19883;SDS011;10104;50.732;10.174;2022-10-23T14:09:05;7.80;;;2.65;;
19883;SDS011;10104;50.732;10.174;2022-10-23T14:11:28;2.38;;;2.17;;
19883;SDS011;10104;50.732;10.174;2022-10-23T14:13:50;3.33;;;2.10;;
19883;SDS011;10104;50.732;10.174;2022-10-23T14:16:13;6.22;;;1.98;;
19883;SDS011;10104;50.732;10.174;2022-10-23T14:18:37;3.80;;;1.83;;
19883;SDS011;10104;50.732;10.174;2022-10-23T14:20:59;3.60;;;1.98;;
19883;SDS011;10104;50.732;10.174;2022-10-23T14:23:24;2.80;;;1.90;;
19883;SDS011;10104;50.732;10.174;2022-10-23T14:25:46;3.30;;;1.65;;
19883;SDS011;10104;50.732;10.174;2022-10-23T14:28:07;5.15;;;1.95;;
19883;SDS011;10104;50.732;10.174;2022-10-23T14:30:29;3.92;;;1.63;;
19883;SDS011;10104;50.732;10.174;2022-10-23T14:32:51;3.53;;;1.73;;
19883;SDS011;10104;50.732;10.174;2022-10-23T14:35:12;5.43;;;2.00;;
19883;SDS011;10104;50.732;10.174;2022-10-23T14:37:34;6.95;;;2.00;;
19883;SDS011;10104;50.732;10.174;2022-10-23T14:39:56;2.58;;;2.10;;
19883;SDS011;10104;50.732;10.174;2022-10-23T14:42:17;2.67;;;1.80;;
19883;SDS011;10104;50.732;10.174;2022-10-23T14:44:39;2.60;;;1.67;;
19883;SDS011;10104;50.732;10.174;2022-10-23T14:47:00;8.60;;;1.90;;
19883;SDS011;10104;50.732;10.174;2022-10-23T14:49:23;2.65;;;1.75;;
19883;SDS011;10104;50.732;10.174;2022-10-23T14:51:44;4.93;;;2.00;;
19883;SDS011;10104;50.732;10.174;2022-10-23T14:54:06;4.63;;;2.15;;
19883;SDS011;10104;50.732;10.174;2022-10-23T14:56:29;3.78;;;2.10;;
19883;SDS011;10104;50.732;10.174;2022-10-23T14:58:52;4.43;;;2.10;;
19883;SDS011;10104;50.732;10.174;2022-10-23T15:01:14;2.88;;;2.08;;
19883;SDS011;10104;50.732;10.174;2022-10-23T15:03:36;5.80;;;2.25;;
19883;SDS011;10104;50.732;10.174;2022-10-23T15:05:58;2.72;;;1.88;;
19883;SDS011;10104;50.732;10.174;2022-10-23T15:08:20;2.80;;;2.13;;
19883;SDS011;10104;50.732;10.174;2022-10-23T15:10:43;2.88;;;2.25;;
19883;SDS011;10104;50.732;10.174;2022-10-23T15:13:04;8.43;;;2.25;;
19883;SDS011;10104;50.732;10.174;2022-10-23T15:15:26;4.00;;;2.55;;
19883;SDS011;10104;50.732;10.174;2022-10-23T15:17:47;3.80;;;2.20;;
19883;SDS011;10104;50.732;10.174;2022-10-23T15:20:09;8.02;;;2.30;;
19883;SDS011;10104;50.732;10.174;2022-10-23T15:22:30;2.17;;;1.98;;
19883;SDS011;10104;50.732;10.174;2022-10-23T15:24:52;7.25;;;2.40;;
19883;SDS011;10104;50.732;10.174;2022-10-23T15:27:14;6.55;;;2.10;;
19883;SDS011;10104;50.732;10.174;2022-10-23T15:29:35;3.45;;;2.20;;
19883;SDS011;10104;50.732;10.174;2022-10-23T15:31:57;4.28;;;2.63;;
19883;SDS011;10104;50.732;10.174;2022-10-23T15:34:23;2.83;;;1.85;;
19883;SDS011;10104;50.732;10.174;2022-10-23T15:36:47;3.60;;;2.55;;
19883;SDS011;10104;50.732;10.174;2022-10-23T15:39:10;6.60;;;2.70;;
19883;SDS011;10104;50.732;10.174;2022-10-23T15:41:32;5.97;;;2.47;;
19883;SDS011;10104;50.732;10.174;2022-10-23T15:43:55;3.63;;;2.03;;
19883;SDS011;10104;50.732;10.174;2022-10-23T15:46:18;5.75;;;2.42;;
19883;SDS011;10104;50.732;10.174;2022-10-23T15:48:40;2.25;;;2.00;;
19883;SDS011;10104;50.732;10.174;2022-10-23T15:51:02;4.32;;;2.67;;
19883;SDS011;10104;50.732;10.174;2022-10-23T15:53:24;2.92;;;2.28;;
19883;SDS011;10104;50.732;10.174;2022-10-23T15:55:46;3.42;;;2.53;;
19883;SDS011;10104;50.732;10.174;2022-10-23T15:58:08;4.18;;;2.40;;
19883;SDS011;10104;50.732;10.174;2022-10-23T16:00:29;4.18;;;2.35;;
19883;SDS011;10104;50.732;10.174;2022-10-23T16:03:00;5.70;;;2.22;;
19883;SDS011;10104;50.732;10.174;2022-10-23T16:05:22;5.35;;;2.60;;
19883;SDS011;10104;50.732;10.174;2022-10-23T16:07:43;3.65;;;2.53;;
19883;SDS011;10104;50.732;10.174;2022-10-23T16:10:05;2.95;;;2.22;;
19883;SDS011;10104;50.732;10.174;2022-10-23T16:12:27;5.10;;;2.78;;